sensor_id;sensor_type;location;lat;lon;timestamp;P1;durP1;ratioP1;P2;durP2;ratioP2
16115;SDS011;8162;47.104;15.432;2022-12-10T00:00:22;16.17;;;12.67;;
16115;SDS011;8162;47.104;15.432;2022-12-10T00:02:49;14.13;;;11.67;;
16115;SDS011;8162;47.104;15.432;2022-12-10T00:05:14;15.87;;;11.43;;
16115;SDS011;8162;47.104;15.432;2022-12-10T00:07:40;15.73;;;12.00;;
16115;SDS011;8162;47.104;15.432;2022-12-10T00:10:06;13.13;;;10.63;;
16115;SDS011;8162;47.104;15.432;2022-12-10T00:12:32;14.10;;;11.37;;
16115;SDS011;8162;47.104;15.432;2022-12-10T00:14:57;15.10;;;11.93;;
16115;SDS011;8162;47.104;15.432;2022-12-10T00:17:23;15.90;;;11.80;;
16115;SDS011;8162;47.104;15.432;2022-12-10T00:19:49;19.03;;;13.13;;
16115;SDS011;8162;47.104;15.432;2022-12-10T00:22:14;17.43;;;11.17;;
16115;SDS011;8162;47.104;15.432;2022-12-10T00:24:40;13.83;;;10.47;;
16115;SDS011;8162;47.104;15.432;2022-12-10T00:27:06;17.60;;;13.03;;
16115;SDS011;8162;47.104;15.432;2022-12-10T00:29:31;13.57;;;10.17;;
16115;SDS011;8162;47.104;15.432;2022-12-10T00:31:57;17.23;;;12.83;;
16115;SDS011;8162;47.104;15.432;2022-12-10T00:34:23;16.40;;;12.53;;
16115;SDS011;8162;47.104;15.432;2022-12-10T00:36:48;13.60;;;11.20;;
16115;SDS011;8162;47.104;15.432;2022-12-10T00:39:15;15.20;;;11.87;;
16115;SDS011;8162;47.104;15.432;2022-12-10T00:41:42;18.87;;;11.83;;
16115;SDS011;8162;47.104;15.432;2022-12-10T00:44:08;13.23;;;9.87;;
16115;SDS011;8162;47.104;15.432;2022-12-10T00:46:34;15.90;;;11.73;;
16115;SDS011;8162;47.104;15.432;2022-12-10T00:49:01;11.93;;;9.50;;
16115;SDS011;8162;47.104;15.432;2022-12-10T00:51:28;22.80;;;14.23;;
16115;SDS011;8162;47.104;15.432;2022-12-10T00:53:54;14.43;;;10.70;;
16115;SDS011;8162;47.104;15.432;2022-12-10T00:56:22;17.83;;;13.37;;
16115;SDS011;8162;47.104;15.432;2022-12-10T00:58:50;16.87;;;12.43;;
16115;SDS011;8162;47.104;15.432;2022-12-10T01:01:20;14.13;;;10.93;;
16115;SDS011;8162;47.104;15.432;2022-12-10T01:03:49;14.00;;;11.30;;
16115;SDS011;8162;47.104;15.432;2022-12-10T01:06:18;15.43;;;11.93;;
16115;SDS011;8162;47.104;15.432;2022-12-10T01:08:59;17.47;;;12.63;;
16115;SDS011;8162;47.104;15.432;2022-12-10T01:11:28;16.20;;;13.03;;
16115;SDS011;8162;47.104;15.432;2022-12-10T01:13:56;13.60;;;10.00;;
16115;SDS011;8162;47.104;15.432;2022-12-10T01:16:22;11.47;;;8.97;;
16115;SDS011;8162;47.104;15.432;2022-12-10T01:18:48;13.07;;;10.43;;
16115;SDS011;8162;47.104;15.432;2022-12-10T01:21:17;16.27;;;12.23;;
16115;SDS011;8162;47.104;15.432;2022-12-10T01:23:46;15.93;;;11.03;;
16115;SDS011;8162;47.104;15.432;2022-12-10T01:26:14;16.43;;;10.93;;
16115;SDS011;8162;47.104;15.432;2022-12-10T01:28:48;16.90;;;12.57;;
16115;SDS011;8162;47.104;15.432;2022-12-10T01:31:17;13.93;;;11.17;;
16115;SDS011;8162;47.104;15.432;2022-12-10T01:33:47;17.63;;;13.27;;
16115;SDS011;8162;47.104;15.432;2022-12-10T01:36:14;16.60;;;13.10;;
16115;SDS011;8162;47.104;15.432;2022-12-10T01:38:42;16.83;;;11.57;;
16115;SDS011;8162;47.104;15.432;2022-12-10T01:41:12;16.33;;;13.07;;
16115;SDS011;8162;47.104;15.432;2022-12-10T01:46:20;12.67;;;10.63;;
16115;SDS011;8162;47.104;15.432;2022-12-10T01:48:47;12.90;;;9.63;;
16115;SDS011;8162;47.104;15.432;2022-12-10T01:51:14;14.57;;;9.57;;
16115;SDS011;8162;47.104;15.432;2022-12-10T01:53:41;19.83;;;13.10;;
16115;SDS011;8162;47.104;15.432;2022-12-10T01:56:09;15.13;;;10.93;;
16115;SDS011;8162;47.104;15.432;2022-12-10T01:58:36;14.37;;;11.07;;
16115;SDS011;8162;47.104;15.432;2022-12-10T02:01:04;21.03;;;14.27;;
16115;SDS011;8162;47.104;15.432;2022-12-10T02:03:52;18.13;;;12.50;;
16115;SDS011;8162;47.104;15.432;2022-12-10T02:11:55;14.97;;;11.23;;
16115;SDS011;8162;47.104;15.432;2022-12-10T02:17:19;16.47;;;12.20;;
16115;SDS011;8162;47.104;15.432;2022-12-10T02:20:08;17.57;;;13.27;;
16115;SDS011;8162;47.104;15.432;2022-12-10T02:22:44;19.80;;;14.83;;
16115;SDS011;8162;47.104;15.432;2022-12-10T02:25:13;15.60;;;10.73;;
16115;SDS011;8162;47.104;15.432;2022-12-10T02:30:22;16.90;;;12.50;;
16115;SDS011;8162;47.104;15.432;2022-12-10T02:32:48;15.17;;;11.10;;
16115;SDS011;8162;47.104;15.432;2022-12-10T02:35:17;11.40;;;10.23;;
16115;SDS011;8162;47.104;15.432;2022-12-10T02:37:55;18.63;;;14.27;;
16115;SDS011;8162;47.104;15.432;2022-12-10T02:40:32;17.63;;;13.90;;
16115;SDS011;8162;47.104;15.432;2022-12-10T02:43:00;14.63;;;11.67;;
16115;SDS011;8162;47.104;15.432;2022-12-10T02:45:27;15.73;;;11.63;;
16115;SDS011;8162;47.104;15.432;2022-12-10T02:47:55;12.30;;;9.83;;
16115;SDS011;8162;47.104;15.432;2022-12-10T02:50:23;18.13;;;14.73;;
16115;SDS011;8162;47.104;15.432;2022-12-10T02:52:50;18.37;;;13.70;;
16115;SDS011;8162;47.104;15.432;2022-12-10T02:55:16;13.57;;;11.13;;
16115;SDS011;8162;47.104;15.432;2022-12-10T03:00:42;18.00;;;12.03;;
16115;SDS011;8162;47.104;15.432;2022-12-10T03:03:23;17.10;;;12.90;;
16115;SDS011;8162;47.104;15.432;2022-12-10T03:11:13;14.33;;;11.83;;
16115;SDS011;8162;47.104;15.432;2022-12-10T03:16:35;15.77;;;11.30;;
16115;SDS011;8162;47.104;15.432;2022-12-10T03:19:05;18.50;;;14.47;;
16115;SDS011;8162;47.104;15.432;2022-12-10T03:21:35;17.13;;;12.23;;
16115;SDS011;8162;47.104;15.432;2022-12-10T03:24:04;16.20;;;12.37;;
16115;SDS011;8162;47.104;15.432;2022-12-10T03:26:31;15.53;;;12.37;;
16115;SDS011;8162;47.104;15.432;2022-12-10T03:29:01;15.33;;;12.57;;
16115;SDS011;8162;47.104;15.432;2022-12-10T03:31:31;16.00;;;12.43;;
16115;SDS011;8162;47.104;15.432;2022-12-10T03:33:59;15.33;;;10.83;;
16115;SDS011;8162;47.104;15.432;2022-12-10T03:36:26;15.57;;;11.00;;
16115;SDS011;8162;47.104;15.432;2022-12-10T03:38:53;13.53;;;9.70;;
16115;SDS011;8162;47.104;15.432;2022-12-10T03:41:19;14.70;;;10.73;;
16115;SDS011;8162;47.104;15.432;2022-12-10T03:43:55;17.67;;;12.63;;
16115;SDS011;8162;47.104;15.432;2022-12-10T03:46:24;20.73;;;14.60;;
16115;SDS011;8162;47.104;15.432;2022-12-10T03:48:52;17.57;;;12.47;;
16115;SDS011;8162;47.104;15.432;2022-12-10T03:51:19;15.73;;;11.93;;
16115;SDS011;8162;47.104;15.432;2022-12-10T03:53:45;16.57;;;11.27;;
16115;SDS011;8162;47.104;15.432;2022-12-10T03:56:11;20.33;;;14.90;;
16115;SDS011;8162;47.104;15.432;2022-12-10T03:58:36;15.87;;;12.53;;
16115;SDS011;8162;47.104;15.432;2022-12-10T04:01:03;15.93;;;11.40;;
16115;SDS011;8162;47.104;15.432;2022-12-10T04:03:29;13.77;;;11.07;;
16115;SDS011;8162;47.104;15.432;2022-12-10T04:06:00;21.93;;;14.37;;
16115;SDS011;8162;47.104;15.432;2022-12-10T04:08:29;19.80;;;13.47;;
16115;SDS011;8162;47.104;15.432;2022-12-10T04:11:00;13.83;;;10.67;;
16115;SDS011;8162;47.104;15.432;2022-12-10T04:13:27;14.43;;;10.90;;
16115;SDS011;8162;47.104;15.432;2022-12-10T04:16:14;9.97;;;8.43;;
16115;SDS011;8162;47.104;15.432;2022-12-10T04:18:51;12.80;;;10.00;;
16115;SDS011;8162;47.104;15.432;2022-12-10T04:21:17;13.13;;;9.70;;
16115;SDS011;8162;47.104;15.432;2022-12-10T04:24:01;15.33;;;12.27;;
16115;SDS011;8162;47.104;15.432;2022-12-10T04:26:45;13.77;;;10.07;;
16115;SDS011;8162;47.104;15.432;2022-12-10T04:29:21;11.90;;;9.00;;
16115;SDS011;8162;47.104;15.432;2022-12-10T04:31:51;19.97;;;14.07;;
16115;SDS011;8162;47.104;15.432;2022-12-10T04:34:17;17.67;;;13.20;;
16115;SDS011;8162;47.104;15.432;2022-12-10T04:36:44;14.27;;;10.83;;
16115;SDS011;8162;47.104;15.432;2022-12-10T04:39:09;17.27;;;13.40;;
16115;SDS011;8162;47.104;15.432;2022-12-10T04:41:39;14.87;;;11.40;;
16115;SDS011;8162;47.104;15.432;2022-12-10T04:44:06;17.50;;;13.53;;
16115;SDS011;8162;47.104;15.432;2022-12-10T04:46:32;17.93;;;12.53;;
16115;SDS011;8162;47.104;15.432;2022-12-10T04:48:58;15.50;;;11.53;;
16115;SDS011;8162;47.104;15.432;2022-12-10T04:51:24;13.43;;;9.50;;
16115;SDS011;8162;47.104;15.432;2022-12-10T04:53:50;14.63;;;11.90;;
16115;SDS011;8162;47.104;15.432;2022-12-10T04:56:15;13.70;;;10.53;;
16115;SDS011;8162;47.104;15.432;2022-12-10T04:58:41;13.03;;;10.17;;
16115;SDS011;8162;47.104;15.432;2022-12-10T05:01:08;13.20;;;9.93;;
16115;SDS011;8162;47.104;15.432;2022-12-10T05:03:35;20.10;;;14.60;;
16115;SDS011;8162;47.104;15.432;2022-12-10T05:06:01;15.93;;;12.40;;
16115;SDS011;8162;47.104;15.432;2022-12-10T05:08:28;15.80;;;11.63;;
16115;SDS011;8162;47.104;15.432;2022-12-10T05:10:54;17.63;;;14.30;;
16115;SDS011;8162;47.104;15.432;2022-12-10T05:13:20;14.70;;;11.47;;
16115;SDS011;8162;47.104;15.432;2022-12-10T05:15:46;15.00;;;11.37;;
16115;SDS011;8162;47.104;15.432;2022-12-10T05:18:11;13.50;;;11.80;;
16115;SDS011;8162;47.104;15.432;2022-12-10T05:20:37;17.37;;;12.13;;
16115;SDS011;8162;47.104;15.432;2022-12-10T05:23:03;14.63;;;11.33;;
16115;SDS011;8162;47.104;15.432;2022-12-10T05:25:46;12.90;;;9.83;;
16115;SDS011;8162;47.104;15.432;2022-12-10T05:28:21;14.17;;;10.87;;
16115;SDS011;8162;47.104;15.432;2022-12-10T05:30:48;17.33;;;13.43;;
16115;SDS011;8162;47.104;15.432;2022-12-10T05:33:13;12.90;;;11.47;;
16115;SDS011;8162;47.104;15.432;2022-12-10T05:35:40;21.80;;;14.50;;
16115;SDS011;8162;47.104;15.432;2022-12-10T05:38:06;14.20;;;11.03;;
16115;SDS011;8162;47.104;15.432;2022-12-10T05:40:35;13.87;;;11.27;;
16115;SDS011;8162;47.104;15.432;2022-12-10T05:43:02;14.50;;;10.97;;
16115;SDS011;8162;47.104;15.432;2022-12-10T05:45:27;10.60;;;8.87;;
16115;SDS011;8162;47.104;15.432;2022-12-10T05:47:53;11.80;;;9.97;;
16115;SDS011;8162;47.104;15.432;2022-12-10T05:50:19;12.03;;;9.80;;
16115;SDS011;8162;47.104;15.432;2022-12-10T05:52:45;12.40;;;9.13;;
16115;SDS011;8162;47.104;15.432;2022-12-10T05:55:10;20.17;;;14.47;;
16115;SDS011;8162;47.104;15.432;2022-12-10T05:57:36;14.53;;;11.67;;
16115;SDS011;8162;47.104;15.432;2022-12-10T06:00:03;14.17;;;10.03;;
16115;SDS011;8162;47.104;15.432;2022-12-10T06:02:32;10.90;;;9.13;;
16115;SDS011;8162;47.104;15.432;2022-12-10T06:04:58;16.83;;;13.93;;
16115;SDS011;8162;47.104;15.432;2022-12-10T06:07:24;10.83;;;8.73;;
16115;SDS011;8162;47.104;15.432;2022-12-10T06:09:50;12.93;;;10.00;;
16115;SDS011;8162;47.104;15.432;2022-12-10T06:12:16;10.60;;;9.10;;
16115;SDS011;8162;47.104;15.432;2022-12-10T06:14:42;12.50;;;9.67;;
16115;SDS011;8162;47.104;15.432;2022-12-10T06:17:08;15.00;;;12.43;;
16115;SDS011;8162;47.104;15.432;2022-12-10T06:19:33;12.90;;;9.27;;
16115;SDS011;8162;47.104;15.432;2022-12-10T06:21:59;13.17;;;9.73;;
16115;SDS011;8162;47.104;15.432;2022-12-10T06:24:25;13.90;;;11.67;;
16115;SDS011;8162;47.104;15.432;2022-12-10T06:26:50;13.37;;;9.80;;
16115;SDS011;8162;47.104;15.432;2022-12-10T06:29:16;9.87;;;8.37;;
16115;SDS011;8162;47.104;15.432;2022-12-10T06:31:43;12.40;;;9.20;;
16115;SDS011;8162;47.104;15.432;2022-12-10T06:34:08;14.60;;;10.07;;
16115;SDS011;8162;47.104;15.432;2022-12-10T06:36:34;14.50;;;10.60;;
16115;SDS011;8162;47.104;15.432;2022-12-10T06:39:00;13.40;;;9.73;;
16115;SDS011;8162;47.104;15.432;2022-12-10T06:41:26;11.10;;;10.00;;
16115;SDS011;8162;47.104;15.432;2022-12-10T06:43:51;12.30;;;9.60;;
16115;SDS011;8162;47.104;15.432;2022-12-10T06:46:18;19.37;;;14.07;;
16115;SDS011;8162;47.104;15.432;2022-12-10T06:48:45;13.13;;;11.47;;
16115;SDS011;8162;47.104;15.432;2022-12-10T06:51:12;17.17;;;12.33;;
16115;SDS011;8162;47.104;15.432;2022-12-10T06:53:39;12.97;;;10.67;;
16115;SDS011;8162;47.104;15.432;2022-12-10T06:56:06;17.20;;;12.40;;
16115;SDS011;8162;47.104;15.432;2022-12-10T06:58:33;17.90;;;13.43;;
16115;SDS011;8162;47.104;15.432;2022-12-10T07:01:19;17.47;;;11.60;;
16115;SDS011;8162;47.104;15.432;2022-12-10T07:03:52;13.47;;;9.93;;
16115;SDS011;8162;47.104;15.432;2022-12-10T07:06:20;18.60;;;12.77;;
16115;SDS011;8162;47.104;15.432;2022-12-10T07:08:47;15.87;;;11.70;;
16115;SDS011;8162;47.104;15.432;2022-12-10T07:11:13;15.90;;;12.67;;
16115;SDS011;8162;47.104;15.432;2022-12-10T07:13:40;15.33;;;12.13;;
16115;SDS011;8162;47.104;15.432;2022-12-10T07:16:13;14.00;;;12.07;;
16115;SDS011;8162;47.104;15.432;2022-12-10T07:18:45;18.73;;;13.43;;
16115;SDS011;8162;47.104;15.432;2022-12-10T07:21:15;15.47;;;12.23;;
16115;SDS011;8162;47.104;15.432;2022-12-10T07:23:42;15.33;;;12.20;;
16115;SDS011;8162;47.104;15.432;2022-12-10T07:26:08;16.83;;;13.10;;
16115;SDS011;8162;47.104;15.432;2022-12-10T07:28:34;17.67;;;12.73;;
16115;SDS011;8162;47.104;15.432;2022-12-10T07:31:00;15.70;;;12.70;;
16115;SDS011;8162;47.104;15.432;2022-12-10T07:33:27;15.53;;;12.37;;
16115;SDS011;8162;47.104;15.432;2022-12-10T07:35:53;14.43;;;11.83;;
16115;SDS011;8162;47.104;15.432;2022-12-10T07:38:18;17.33;;;13.73;;
16115;SDS011;8162;47.104;15.432;2022-12-10T07:40:44;18.67;;;13.53;;
16115;SDS011;8162;47.104;15.432;2022-12-10T07:43:09;15.90;;;11.70;;
16115;SDS011;8162;47.104;15.432;2022-12-10T07:45:35;14.90;;;11.90;;
16115;SDS011;8162;47.104;15.432;2022-12-10T07:48:01;16.77;;;13.83;;
16115;SDS011;8162;47.104;15.432;2022-12-10T07:50:26;16.47;;;12.27;;
16115;SDS011;8162;47.104;15.432;2022-12-10T07:52:52;11.77;;;10.17;;
16115;SDS011;8162;47.104;15.432;2022-12-10T07:55:18;14.40;;;11.60;;
16115;SDS011;8162;47.104;15.432;2022-12-10T07:57:43;13.17;;;11.37;;
16115;SDS011;8162;47.104;15.432;2022-12-10T08:00:09;15.03;;;13.33;;
16115;SDS011;8162;47.104;15.432;2022-12-10T08:02:35;15.67;;;13.07;;
16115;SDS011;8162;47.104;15.432;2022-12-10T08:05:01;19.20;;;14.10;;
16115;SDS011;8162;47.104;15.432;2022-12-10T08:07:26;16.60;;;12.70;;
16115;SDS011;8162;47.104;15.432;2022-12-10T08:09:52;16.23;;;12.83;;
16115;SDS011;8162;47.104;15.432;2022-12-10T08:12:18;16.00;;;13.23;;
16115;SDS011;8162;47.104;15.432;2022-12-10T08:14:43;18.60;;;13.80;;
16115;SDS011;8162;47.104;15.432;2022-12-10T08:17:09;17.13;;;14.20;;
16115;SDS011;8162;47.104;15.432;2022-12-10T08:19:34;19.87;;;14.13;;
16115;SDS011;8162;47.104;15.432;2022-12-10T08:22:00;17.90;;;14.07;;
16115;SDS011;8162;47.104;15.432;2022-12-10T08:24:26;15.67;;;13.00;;
16115;SDS011;8162;47.104;15.432;2022-12-10T08:26:51;14.43;;;12.17;;
16115;SDS011;8162;47.104;15.432;2022-12-10T08:29:17;16.20;;;12.90;;
16115;SDS011;8162;47.104;15.432;2022-12-10T08:31:43;19.60;;;14.50;;
16115;SDS011;8162;47.104;15.432;2022-12-10T08:34:12;15.87;;;12.70;;
16115;SDS011;8162;47.104;15.432;2022-12-10T08:36:39;13.87;;;11.40;;
16115;SDS011;8162;47.104;15.432;2022-12-10T08:39:04;19.33;;;13.77;;
16115;SDS011;8162;47.104;15.432;2022-12-10T08:41:30;14.73;;;11.17;;
16115;SDS011;8162;47.104;15.432;2022-12-10T08:43:55;20.67;;;13.40;;
16115;SDS011;8162;47.104;15.432;2022-12-10T08:46:21;15.27;;;12.57;;
16115;SDS011;8162;47.104;15.432;2022-12-10T08:48:48;19.47;;;12.43;;
16115;SDS011;8162;47.104;15.432;2022-12-10T08:51:15;17.90;;;14.17;;
16115;SDS011;8162;47.104;15.432;2022-12-10T08:53:42;19.77;;;13.70;;
16115;SDS011;8162;47.104;15.432;2022-12-10T08:56:08;19.43;;;13.50;;
16115;SDS011;8162;47.104;15.432;2022-12-10T08:58:34;14.50;;;12.07;;
16115;SDS011;8162;47.104;15.432;2022-12-10T09:01:05;20.10;;;13.93;;
16115;SDS011;8162;47.104;15.432;2022-12-10T09:03:32;21.50;;;14.30;;
16115;SDS011;8162;47.104;15.432;2022-12-10T09:06:01;21.17;;;14.70;;
16115;SDS011;8162;47.104;15.432;2022-12-10T09:08:30;19.57;;;14.20;;
16115;SDS011;8162;47.104;15.432;2022-12-10T09:10:56;17.37;;;13.43;;
16115;SDS011;8162;47.104;15.432;2022-12-10T09:13:21;21.70;;;14.47;;
16115;SDS011;8162;47.104;15.432;2022-12-10T09:15:51;14.93;;;11.97;;
16115;SDS011;8162;47.104;15.432;2022-12-10T09:18:17;19.93;;;14.37;;
16115;SDS011;8162;47.104;15.432;2022-12-10T09:20:43;20.97;;;15.53;;
16115;SDS011;8162;47.104;15.432;2022-12-10T09:23:09;21.53;;;14.90;;
16115;SDS011;8162;47.104;15.432;2022-12-10T09:25:34;22.10;;;15.67;;
16115;SDS011;8162;47.104;15.432;2022-12-10T09:28:00;19.33;;;14.07;;
16115;SDS011;8162;47.104;15.432;2022-12-10T09:30:26;18.53;;;12.77;;
16115;SDS011;8162;47.104;15.432;2022-12-10T09:32:51;16.97;;;11.43;;
16115;SDS011;8162;47.104;15.432;2022-12-10T09:35:17;18.00;;;12.90;;
16115;SDS011;8162;47.104;15.432;2022-12-10T09:37:42;19.97;;;14.60;;
16115;SDS011;8162;47.104;15.432;2022-12-10T09:40:10;21.83;;;16.30;;
16115;SDS011;8162;47.104;15.432;2022-12-10T09:42:52;18.17;;;14.33;;
16115;SDS011;8162;47.104;15.432;2022-12-10T09:48:22;18.93;;;14.73;;
16115;SDS011;8162;47.104;15.432;2022-12-10T09:50:55;23.00;;;15.33;;
16115;SDS011;8162;47.104;15.432;2022-12-10T09:53:35;19.93;;;14.30;;
16115;SDS011;8162;47.104;15.432;2022-12-10T09:56:02;20.37;;;14.93;;
16115;SDS011;8162;47.104;15.432;2022-12-10T09:58:29;23.70;;;15.30;;
16115;SDS011;8162;47.104;15.432;2022-12-10T10:00:56;21.27;;;13.57;;
16115;SDS011;8162;47.104;15.432;2022-12-10T10:03:28;18.77;;;13.03;;
16115;SDS011;8162;47.104;15.432;2022-12-10T10:05:58;19.50;;;13.37;;
16115;SDS011;8162;47.104;15.432;2022-12-10T10:10:58;19.40;;;13.37;;
16115;SDS011;8162;47.104;15.432;2022-12-10T10:13:44;16.33;;;12.20;;
16115;SDS011;8162;47.104;15.432;2022-12-10T10:18:51;16.23;;;11.87;;
16115;SDS011;8162;47.104;15.432;2022-12-10T10:21:24;16.73;;;11.93;;
16115;SDS011;8162;47.104;15.432;2022-12-10T10:23:52;13.13;;;10.27;;
16115;SDS011;8162;47.104;15.432;2022-12-10T10:26:19;14.53;;;10.43;;
16115;SDS011;8162;47.104;15.432;2022-12-10T10:28:45;15.60;;;10.97;;
16115;SDS011;8162;47.104;15.432;2022-12-10T10:31:24;13.43;;;10.23;;
16115;SDS011;8162;47.104;15.432;2022-12-10T10:33:53;14.77;;;11.70;;
16115;SDS011;8162;47.104;15.432;2022-12-10T10:36:28;15.23;;;11.07;;
16115;SDS011;8162;47.104;15.432;2022-12-10T10:38:57;13.97;;;10.07;;
16115;SDS011;8162;47.104;15.432;2022-12-10T10:41:43;10.57;;;8.57;;
16115;SDS011;8162;47.104;15.432;2022-12-10T10:44:21;10.57;;;8.17;;
16115;SDS011;8162;47.104;15.432;2022-12-10T10:46:49;10.07;;;8.83;;
16115;SDS011;8162;47.104;15.432;2022-12-10T10:51:51;10.20;;;8.63;;
16115;SDS011;8162;47.104;15.432;2022-12-10T10:57:06;9.17;;;7.30;;
16115;SDS011;8162;47.104;15.432;2022-12-10T10:59:36;8.60;;;7.23;;
16115;SDS011;8162;47.104;15.432;2022-12-10T11:04:54;7.37;;;6.67;;
16115;SDS011;8162;47.104;15.432;2022-12-10T11:07:34;6.73;;;6.00;;
16115;SDS011;8162;47.104;15.432;2022-12-10T11:10:15;6.40;;;5.80;;
16115;SDS011;8162;47.104;15.432;2022-12-10T11:12:44;6.57;;;5.80;;
16115;SDS011;8162;47.104;15.432;2022-12-10T11:17:48;7.20;;;5.97;;
16115;SDS011;8162;47.104;15.432;2022-12-10T11:20:19;5.93;;;5.33;;
16115;SDS011;8162;47.104;15.432;2022-12-10T11:22:53;7.60;;;5.93;;
16115;SDS011;8162;47.104;15.432;2022-12-10T11:39:15;7.73;;;6.10;;
16115;SDS011;8162;47.104;15.432;2022-12-10T11:44:43;8.53;;;6.83;;
16115;SDS011;8162;47.104;15.432;2022-12-10T11:47:35;8.57;;;7.47;;
16115;SDS011;8162;47.104;15.432;2022-12-10T11:50:34;7.13;;;6.33;;
16115;SDS011;8162;47.104;15.432;2022-12-10T12:01:27;5.63;;;5.10;;
16115;SDS011;8162;47.104;15.432;2022-12-10T12:06:57;5.70;;;5.20;;
16115;SDS011;8162;47.104;15.432;2022-12-10T12:12:50;6.43;;;5.47;;
16115;SDS011;8162;47.104;15.432;2022-12-10T12:15:21;5.77;;;4.90;;
16115;SDS011;8162;47.104;15.432;2022-12-10T12:18:09;5.87;;;4.63;;
16115;SDS011;8162;47.104;15.432;2022-12-10T12:20:49;6.20;;;5.50;;
16115;SDS011;8162;47.104;15.432;2022-12-10T12:23:23;6.47;;;5.87;;
16115;SDS011;8162;47.104;15.432;2022-12-10T12:26:02;7.27;;;6.47;;
16115;SDS011;8162;47.104;15.432;2022-12-10T12:28:32;8.03;;;6.37;;
16115;SDS011;8162;47.104;15.432;2022-12-10T12:31:05;6.80;;;6.07;;
16115;SDS011;8162;47.104;15.432;2022-12-10T12:33:47;6.90;;;5.93;;
16115;SDS011;8162;47.104;15.432;2022-12-10T12:36:44;8.70;;;6.33;;
16115;SDS011;8162;47.104;15.432;2022-12-10T12:47:41;7.27;;;6.07;;
16115;SDS011;8162;47.104;15.432;2022-12-10T12:50:24;7.57;;;6.77;;
16115;SDS011;8162;47.104;15.432;2022-12-10T12:52:52;8.00;;;7.20;;
16115;SDS011;8162;47.104;15.432;2022-12-10T12:55:38;8.83;;;7.37;;
16115;SDS011;8162;47.104;15.432;2022-12-10T12:58:33;8.10;;;7.00;;
16115;SDS011;8162;47.104;15.432;2022-12-10T13:01:20;8.47;;;7.53;;
16115;SDS011;8162;47.104;15.432;2022-12-10T13:04:08;8.60;;;7.70;;
16115;SDS011;8162;47.104;15.432;2022-12-10T13:06:37;9.17;;;7.33;;
16115;SDS011;8162;47.104;15.432;2022-12-10T13:11:43;8.77;;;7.37;;
16115;SDS011;8162;47.104;15.432;2022-12-10T13:14:36;8.17;;;6.37;;
16115;SDS011;8162;47.104;15.432;2022-12-10T13:19:51;9.33;;;6.93;;
16115;SDS011;8162;47.104;15.432;2022-12-10T13:25:16;8.60;;;7.07;;
16115;SDS011;8162;47.104;15.432;2022-12-10T13:27:56;8.73;;;7.50;;
16115;SDS011;8162;47.104;15.432;2022-12-10T13:30:40;8.07;;;6.87;;
16115;SDS011;8162;47.104;15.432;2022-12-10T13:33:18;10.07;;;7.03;;
16115;SDS011;8162;47.104;15.432;2022-12-10T13:36:04;9.23;;;7.77;;
16115;SDS011;8162;47.104;15.432;2022-12-10T13:38:29;9.13;;;6.63;;
16115;SDS011;8162;47.104;15.432;2022-12-10T13:41:05;9.27;;;7.17;;
16115;SDS011;8162;47.104;15.432;2022-12-10T13:43:55;8.27;;;6.97;;
16115;SDS011;8162;47.104;15.432;2022-12-10T13:49:29;6.70;;;6.00;;
16115;SDS011;8162;47.104;15.432;2022-12-10T13:52:03;7.33;;;5.87;;
16115;SDS011;8162;47.104;15.432;2022-12-10T13:54:43;8.30;;;6.70;;
16115;SDS011;8162;47.104;15.432;2022-12-10T13:57:21;6.90;;;5.93;;
16115;SDS011;8162;47.104;15.432;2022-12-10T14:00:14;6.70;;;6.00;;
16115;SDS011;8162;47.104;15.432;2022-12-10T14:08:19;4.77;;;4.10;;
16115;SDS011;8162;47.104;15.432;2022-12-10T14:10:48;4.93;;;4.50;;
16115;SDS011;8162;47.104;15.432;2022-12-10T14:13:16;5.67;;;5.17;;
16115;SDS011;8162;47.104;15.432;2022-12-10T14:15:47;5.93;;;5.10;;
16115;SDS011;8162;47.104;15.432;2022-12-10T14:18:20;5.27;;;4.77;;
16115;SDS011;8162;47.104;15.432;2022-12-10T14:20:48;6.10;;;4.60;;
16115;SDS011;8162;47.104;15.432;2022-12-10T14:23:34;7.67;;;5.60;;
16115;SDS011;8162;47.104;15.432;2022-12-10T14:26:06;5.17;;;4.63;;
16115;SDS011;8162;47.104;15.432;2022-12-10T14:28:38;5.57;;;4.13;;
16115;SDS011;8162;47.104;15.432;2022-12-10T14:31:11;6.53;;;4.90;;
16115;SDS011;8162;47.104;15.432;2022-12-10T14:33:51;6.27;;;5.27;;
16115;SDS011;8162;47.104;15.432;2022-12-10T14:36:27;6.53;;;5.43;;
16115;SDS011;8162;47.104;15.432;2022-12-10T14:38:59;5.73;;;4.93;;
16115;SDS011;8162;47.104;15.432;2022-12-10T14:41:26;5.93;;;4.77;;
16115;SDS011;8162;47.104;15.432;2022-12-10T14:43:55;8.40;;;5.30;;
16115;SDS011;8162;47.104;15.432;2022-12-10T14:46:27;6.10;;;4.87;;
16115;SDS011;8162;47.104;15.432;2022-12-10T14:48:54;4.93;;;4.40;;
16115;SDS011;8162;47.104;15.432;2022-12-10T14:51:21;4.90;;;4.23;;
16115;SDS011;8162;47.104;15.432;2022-12-10T14:53:50;4.80;;;4.30;;
16115;SDS011;8162;47.104;15.432;2022-12-10T15:03:52;3.70;;;3.40;;
16115;SDS011;8162;47.104;15.432;2022-12-10T15:06:19;4.37;;;3.30;;
16115;SDS011;8162;47.104;15.432;2022-12-10T15:08:46;5.13;;;3.20;;
16115;SDS011;8162;47.104;15.432;2022-12-10T15:11:19;4.40;;;4.00;;
16115;SDS011;8162;47.104;15.432;2022-12-10T15:13:47;4.30;;;3.90;;
16115;SDS011;8162;47.104;15.432;2022-12-10T15:16:19;4.13;;;3.73;;
16115;SDS011;8162;47.104;15.432;2022-12-10T15:18:53;3.47;;;3.17;;
16115;SDS011;8162;47.104;15.432;2022-12-10T15:21:21;4.23;;;3.83;;
16115;SDS011;8162;47.104;15.432;2022-12-10T15:23:49;3.30;;;3.00;;
16115;SDS011;8162;47.104;15.432;2022-12-10T15:26:32;5.00;;;4.43;;
16115;SDS011;8162;47.104;15.432;2022-12-10T15:29:26;4.73;;;4.20;;
16115;SDS011;8162;47.104;15.432;2022-12-10T15:32:08;5.13;;;4.20;;
16115;SDS011;8162;47.104;15.432;2022-12-10T15:35:04;6.43;;;4.37;;
16115;SDS011;8162;47.104;15.432;2022-12-10T15:37:38;6.17;;;4.53;;
16115;SDS011;8162;47.104;15.432;2022-12-10T15:40:27;5.23;;;4.63;;
16115;SDS011;8162;47.104;15.432;2022-12-10T15:43:10;4.30;;;3.90;;
16115;SDS011;8162;47.104;15.432;2022-12-10T15:45:39;4.53;;;3.90;;
16115;SDS011;8162;47.104;15.432;2022-12-10T15:48:08;5.50;;;4.90;;
16115;SDS011;8162;47.104;15.432;2022-12-10T15:50:36;5.73;;;5.13;;
16115;SDS011;8162;47.104;15.432;2022-12-10T15:53:03;6.80;;;5.40;;
16115;SDS011;8162;47.104;15.432;2022-12-10T15:55:29;6.00;;;5.30;;
16115;SDS011;8162;47.104;15.432;2022-12-10T15:57:55;5.03;;;4.27;;
16115;SDS011;8162;47.104;15.432;2022-12-10T16:00:25;5.30;;;4.80;;
16115;SDS011;8162;47.104;15.432;2022-12-10T16:02:56;5.60;;;5.00;;
16115;SDS011;8162;47.104;15.432;2022-12-10T16:05:28;6.13;;;4.53;;
16115;SDS011;8162;47.104;15.432;2022-12-10T16:08:00;5.83;;;5.20;;
16115;SDS011;8162;47.104;15.432;2022-12-10T16:10:31;8.00;;;6.03;;
16115;SDS011;8162;47.104;15.432;2022-12-10T16:13:10;5.87;;;5.27;;
16115;SDS011;8162;47.104;15.432;2022-12-10T16:15:42;6.87;;;6.17;;
16115;SDS011;8162;47.104;15.432;2022-12-10T16:18:15;8.03;;;6.80;;
16115;SDS011;8162;47.104;15.432;2022-12-10T16:20:41;9.67;;;6.63;;
16115;SDS011;8162;47.104;15.432;2022-12-10T16:23:07;7.10;;;6.40;;
16115;SDS011;8162;47.104;15.432;2022-12-10T16:25:35;8.13;;;6.43;;
16115;SDS011;8162;47.104;15.432;2022-12-10T16:28:07;7.13;;;5.97;;
16115;SDS011;8162;47.104;15.432;2022-12-10T16:30:37;8.90;;;7.33;;
16115;SDS011;8162;47.104;15.432;2022-12-10T16:33:06;9.60;;;7.20;;
16115;SDS011;8162;47.104;15.432;2022-12-10T16:35:32;13.07;;;8.90;;